sensor_id;sensor_type;location;lat;lon;timestamp;pressure;altitude;pressure_sealevel;temperature;humidity
67987;BME280;54767;53.800;15.956;2023-04-05T00:01:16;101062.12;;;-0.25;68.33
67987;BME280;54767;53.800;15.956;2023-04-05T00:03:47;101061.55;;;-0.22;68.41
67987;BME280;54767;53.800;15.956;2023-04-05T00:06:15;101065.03;;;-0.21;68.24
67987;BME280;54767;53.800;15.956;2023-04-05T00:08:44;101058.59;;;-0.23;68.44
67987;BME280;54767;53.800;15.956;2023-04-05T00:11:17;101061.96;;;-0.24;68.33
67987;BME280;54767;53.800;15.956;2023-04-05T00:13:46;101063.21;;;-0.27;68.34
67987;BME280;54767;53.800;15.956;2023-04-05T00:16:15;101063.94;;;-0.29;68.27
67987;BME280;54767;53.800;15.956;2023-04-05T00:18:44;101062.85;;;-0.33;68.28
67987;BME280;54767;53.800;15.956;2023-04-05T00:21:17;101060.91;;;-0.39;68.35
67987;BME280;54767;53.800;15.956;2023-04-05T00:23:53;101061.55;;;-0.40;68.35
67987;BME280;54767;53.800;15.956;2023-04-05T00:26:23;101060.44;;;-0.41;68.32
67987;BME280;54767;53.800;15.956;2023-04-05T00:28:52;101062.23;;;-0.40;68.52
67987;BME280;54767;53.800;15.956;2023-04-05T00:31:20;101059.77;;;-0.41;68.57
67987;BME280;54767;53.800;15.956;2023-04-05T00:33:49;101060.08;;;-0.47;68.48
67987;BME280;54767;53.800;15.956;2023-04-05T00:36:19;101056.36;;;-0.52;68.56
67987;BME280;54767;53.800;15.956;2023-04-05T00:38:47;101051.41;;;-0.55;68.51
67987;BME280;54767;53.800;15.956;2023-04-05T00:41:19;101047.73;;;-0.55;68.44
67987;BME280;54767;53.800;15.956;2023-04-05T00:43:47;101048.59;;;-0.58;68.45
67987;BME280;54767;53.800;15.956;2023-04-05T00:46:15;101046.77;;;-0.63;68.25
67987;BME280;54767;53.800;15.956;2023-04-05T00:48:44;101047.55;;;-0.67;68.51
67987;BME280;54767;53.800;15.956;2023-04-05T00:51:12;101048.17;;;-0.68;68.44
67987;BME280;54767;53.800;15.956;2023-04-05T00:53:41;101043.16;;;-0.66;68.54
67987;BME280;54767;53.800;15.956;2023-04-05T00:56:12;101040.82;;;-0.62;68.40
67987;BME280;54767;53.800;15.956;2023-04-05T00:58:42;101038.56;;;-0.60;68.45
67987;BME280;54767;53.800;15.956;2023-04-05T01:01:20;101039.67;;;-0.58;68.43
67987;BME280;54767;53.800;15.956;2023-04-05T01:04:00;101041.33;;;-0.56;68.46
67987;BME280;54767;53.800;15.956;2023-04-05T01:12:05;101042.26;;;-0.58;68.10
67987;BME280;54767;53.800;15.956;2023-04-05T01:14:49;101047.02;;;-0.62;68.03
67987;BME280;54767;53.800;15.956;2023-04-05T01:17:19;101046.02;;;-0.67;67.98
67987;BME280;54767;53.800;15.956;2023-04-05T01:19:59;101038.45;;;-0.73;67.92
67987;BME280;54767;53.800;15.956;2023-04-05T01:31:22;101032.58;;;-0.67;68.23
67987;BME280;54767;53.800;15.956;2023-04-05T01:36:46;101028.08;;;-0.65;68.19
67987;BME280;54767;53.800;15.956;2023-04-05T01:39:19;101029.23;;;-0.66;68.30
67987;BME280;54767;53.800;15.956;2023-04-05T01:41:49;101030.36;;;-0.67;68.28
67987;BME280;54767;53.800;15.956;2023-04-05T01:44:17;101025.48;;;-0.68;68.22
67987;BME280;54767;53.800;15.956;2023-04-05T01:46:45;101026.40;;;-0.70;68.03
67987;BME280;54767;53.800;15.956;2023-04-05T01:49:15;101021.80;;;-0.72;68.11
67987;BME280;54767;53.800;15.956;2023-04-05T01:51:43;101023.33;;;-0.76;68.10
67987;BME280;54767;53.800;15.956;2023-04-05T01:54:11;101025.05;;;-0.78;68.06
67987;BME280;54767;53.800;15.956;2023-04-05T01:56:40;101021.34;;;-0.80;67.91
67987;BME280;54767;53.800;15.956;2023-04-05T01:59:08;101020.08;;;-0.81;67.79
67987;BME280;54767;53.800;15.956;2023-04-05T02:01:36;101018.61;;;-0.80;67.87
67987;BME280;54767;53.800;15.956;2023-04-05T02:04:05;101016.23;;;-0.77;67.89
67987;BME280;54767;53.800;15.956;2023-04-05T02:06:33;101021.50;;;-0.75;67.77
67987;BME280;54767;53.800;15.956;2023-04-05T02:09:01;101020.66;;;-0.74;67.92
67987;BME280;54767;53.800;15.956;2023-04-05T02:11:29;101016.04;;;-0.74;67.93
67987;BME280;54767;53.800;15.956;2023-04-05T02:13:58;101018.05;;;-0.75;67.96
67987;BME280;54767;53.800;15.956;2023-04-05T02:16:26;101010.05;;;-0.77;67.81
67987;BME280;54767;53.800;15.956;2023-04-05T02:18:54;101010.83;;;-0.80;67.54
67987;BME280;54767;53.800;15.956;2023-04-05T02:21:25;101010.98;;;-0.87;67.41
67987;BME280;54767;53.800;15.956;2023-04-05T02:23:54;101007.89;;;-0.95;67.46
67987;BME280;54767;53.800;15.956;2023-04-05T02:26:22;101011.58;;;-1.00;67.40
67987;BME280;54767;53.800;15.956;2023-04-05T02:28:51;101009.93;;;-1.04;67.59
67987;BME280;54767;53.800;15.956;2023-04-05T02:31:19;101012.20;;;-1.06;67.49
67987;BME280;54767;53.800;15.956;2023-04-05T02:33:48;101013.07;;;-1.06;67.71
67987;BME280;54767;53.800;15.956;2023-04-05T02:36:16;101007.98;;;-1.05;67.95
67987;BME280;54767;53.800;15.956;2023-04-05T02:38:45;101011.88;;;-1.03;67.74
67987;BME280;54767;53.800;15.956;2023-04-05T02:41:13;101003.92;;;-1.04;67.73
67987;BME280;54767;53.800;15.956;2023-04-05T02:43:42;101007.70;;;-1.04;67.97
67987;BME280;54767;53.800;15.956;2023-04-05T02:46:10;101007.39;;;-1.06;67.73
67987;BME280;54767;53.800;15.956;2023-04-05T02:48:39;101004.38;;;-1.07;67.78
67987;BME280;54767;53.800;15.956;2023-04-05T02:51:07;101004.63;;;-1.09;67.91
67987;BME280;54767;53.800;15.956;2023-04-05T02:53:36;101004.55;;;-1.10;67.89
67987;BME280;54767;53.800;15.956;2023-04-05T02:56:04;101006.48;;;-1.13;67.88
67987;BME280;54767;53.800;15.956;2023-04-05T02:58:32;101002.49;;;-1.16;67.96
67987;BME280;54767;53.800;15.956;2023-04-05T03:01:01;101007.47;;;-1.22;67.68
67987;BME280;54767;53.800;15.956;2023-04-05T03:03:33;100999.60;;;-1.27;67.83
67987;BME280;54767;53.800;15.956;2023-04-05T03:06:04;101000.00;;;-1.29;67.70
67987;BME280;54767;53.800;15.956;2023-04-05T03:08:40;100998.84;;;-1.28;67.92
67987;BME280;54767;53.800;15.956;2023-04-05T03:11:11;100997.27;;;-1.28;67.71
67987;BME280;54767;53.800;15.956;2023-04-05T03:13:40;101002.13;;;-1.30;67.75
67987;BME280;54767;53.800;15.956;2023-04-05T03:16:08;101007.63;;;-1.33;68.04
67987;BME280;54767;53.800;15.956;2023-04-05T03:18:37;101006.52;;;-1.34;68.01
67987;BME280;54767;53.800;15.956;2023-04-05T03:21:05;101005.11;;;-1.35;68.35
67987;BME280;54767;53.800;15.956;2023-04-05T03:23:39;101003.45;;;-1.37;68.22
67987;BME280;54767;53.800;15.956;2023-04-05T03:26:07;101002.30;;;-1.39;68.23
67987;BME280;54767;53.800;15.956;2023-04-05T03:28:35;100999.02;;;-1.42;68.02
67987;BME280;54767;53.800;15.956;2023-04-05T03:31:04;100997.30;;;-1.45;68.23
67987;BME280;54767;53.800;15.956;2023-04-05T03:33:33;101001.20;;;-1.45;68.32
67987;BME280;54767;53.800;15.956;2023-04-05T03:36:01;101000.36;;;-1.45;68.46
67987;BME280;54767;53.800;15.956;2023-04-05T03:38:29;100995.80;;;-1.44;68.34
67987;BME280;54767;53.800;15.956;2023-04-05T03:41:01;100997.56;;;-1.43;68.57
67987;BME280;54767;53.800;15.956;2023-04-05T03:43:29;100996.67;;;-1.44;68.34
67987;BME280;54767;53.800;15.956;2023-04-05T03:45:57;100999.21;;;-1.45;68.45
67987;BME280;54767;53.800;15.956;2023-04-05T03:48:26;100995.02;;;-1.45;68.61
67987;BME280;54767;53.800;15.956;2023-04-05T03:50:54;100993.16;;;-1.48;68.50
67987;BME280;54767;53.800;15.956;2023-04-05T03:53:23;100999.70;;;-1.48;68.56
67987;BME280;54767;53.800;15.956;2023-04-05T03:55:51;101000.32;;;-1.49;68.58
67987;BME280;54767;53.800;15.956;2023-04-05T03:58:21;100998.06;;;-1.52;68.28
67987;BME280;54767;53.800;15.956;2023-04-05T04:00:49;101003.15;;;-1.55;68.39
67987;BME280;54767;53.800;15.956;2023-04-05T04:03:19;101005.80;;;-1.57;68.42
67987;BME280;54767;53.800;15.956;2023-04-05T04:05:48;101004.63;;;-1.57;68.54
67987;BME280;54767;53.800;15.956;2023-04-05T04:08:17;101001.53;;;-1.56;68.35
67987;BME280;54767;53.800;15.956;2023-04-05T04:10:45;101003.19;;;-1.57;68.43
67987;BME280;54767;53.800;15.956;2023-04-05T04:13:14;101005.75;;;-1.58;68.43
67987;BME280;54767;53.800;15.956;2023-04-05T04:15:42;101005.34;;;-1.59;68.51
67987;BME280;54767;53.800;15.956;2023-04-05T04:18:11;101009.52;;;-1.61;68.53
67987;BME280;54767;53.800;15.956;2023-04-05T04:20:39;101016.20;;;-1.64;68.50
67987;BME280;54767;53.800;15.956;2023-04-05T04:23:08;101016.38;;;-1.66;68.40
67987;BME280;54767;53.800;15.956;2023-04-05T04:25:37;101014.98;;;-1.69;68.42
67987;BME280;54767;53.800;15.956;2023-04-05T04:28:06;101019.54;;;-1.73;68.23
67987;BME280;54767;53.800;15.956;2023-04-05T04:30:35;101018.85;;;-1.76;68.46
67987;BME280;54767;53.800;15.956;2023-04-05T04:33:03;101017.02;;;-1.77;68.49
67987;BME280;54767;53.800;15.956;2023-04-05T04:35:35;101017.60;;;-1.77;68.68
67987;BME280;54767;53.800;15.956;2023-04-05T04:38:06;101018.95;;;-1.77;68.57
67987;BME280;54767;53.800;15.956;2023-04-05T04:40:37;101020.14;;;-1.77;68.51
67987;BME280;54767;53.800;15.956;2023-04-05T04:43:14;101020.12;;;-1.78;68.72
67987;BME280;54767;53.800;15.956;2023-04-05T04:45:45;101022.33;;;-1.78;68.57
67987;BME280;54767;53.800;15.956;2023-04-05T04:48:19;101021.52;;;-1.80;68.56
67987;BME280;54767;53.800;15.956;2023-04-05T04:50:48;101020.28;;;-1.80;68.79
67987;BME280;54767;53.800;15.956;2023-04-05T04:53:19;101018.71;;;-1.84;68.67
67987;BME280;54767;53.800;15.956;2023-04-05T04:55:51;101023.20;;;-1.86;68.86
67987;BME280;54767;53.800;15.956;2023-04-05T04:58:19;101022.94;;;-1.87;68.68
67987;BME280;54767;53.800;15.956;2023-04-05T05:00:47;101027.86;;;-1.88;68.86
67987;BME280;54767;53.800;15.956;2023-04-05T05:03:16;101025.73;;;-1.86;68.89
67987;BME280;54767;53.800;15.956;2023-04-05T05:05:47;101024.66;;;-1.85;69.02
67987;BME280;54767;53.800;15.956;2023-04-05T05:08:16;101025.94;;;-1.83;69.16
67987;BME280;54767;53.800;15.956;2023-04-05T05:10:51;101028.80;;;-1.82;69.17
67987;BME280;54767;53.800;15.956;2023-04-05T05:13:20;101030.77;;;-1.77;69.21
67987;BME280;54767;53.800;15.956;2023-04-05T05:15:48;101030.34;;;-1.76;69.47
67987;BME280;54767;53.800;15.956;2023-04-05T05:18:16;101023.70;;;-1.75;69.55
67987;BME280;54767;53.800;15.956;2023-04-05T05:20:49;101022.05;;;-1.74;69.40
67987;BME280;54767;53.800;15.956;2023-04-05T05:23:17;101022.46;;;-1.73;69.58
67987;BME280;54767;53.800;15.956;2023-04-05T05:25:48;101017.45;;;-1.71;69.59
67987;BME280;54767;53.800;15.956;2023-04-05T05:28:16;101015.20;;;-1.66;69.50
67987;BME280;54767;53.800;15.956;2023-04-05T05:30:44;101013.88;;;-1.60;69.90
67987;BME280;54767;53.800;15.956;2023-04-05T05:33:13;101012.83;;;-1.54;69.99
67987;BME280;54767;53.800;15.956;2023-04-05T05:35:41;101018.73;;;-1.48;69.90
67987;BME280;54767;53.800;15.956;2023-04-05T05:38:09;101013.83;;;-1.44;69.68
67987;BME280;54767;53.800;15.956;2023-04-05T05:40:40;101014.11;;;-1.39;69.86
67987;BME280;54767;53.800;15.956;2023-04-05T05:43:09;101012.44;;;-1.36;70.05
67987;BME280;54767;53.800;15.956;2023-04-05T05:45:38;101012.80;;;-1.33;70.03
67987;BME280;54767;53.800;15.956;2023-04-05T05:48:07;101011.96;;;-1.30;70.02
67987;BME280;54767;53.800;15.956;2023-04-05T05:50:35;101011.90;;;-1.25;70.20
67987;BME280;54767;53.800;15.956;2023-04-05T05:53:06;101012.63;;;-1.19;70.21
67987;BME280;54767;53.800;15.956;2023-04-05T05:55:35;101018.69;;;-1.13;70.15
67987;BME280;54767;53.800;15.956;2023-04-05T05:58:04;101014.02;;;-1.10;70.41
67987;BME280;54767;53.800;15.956;2023-04-05T06:00:33;101012.54;;;-1.07;70.40
67987;BME280;54767;53.800;15.956;2023-04-05T06:03:01;101013.80;;;-1.02;70.58
67987;BME280;54767;53.800;15.956;2023-04-05T06:05:31;101010.98;;;-0.98;70.35
67987;BME280;54767;53.800;15.956;2023-04-05T06:07:59;101009.45;;;-0.98;70.67
67987;BME280;54767;53.800;15.956;2023-04-05T06:10:29;101013.57;;;-0.95;70.69
67987;BME280;54767;53.800;15.956;2023-04-05T06:12:57;101010.20;;;-0.91;70.71
67987;BME280;54767;53.800;15.956;2023-04-05T06:15:26;101011.27;;;-0.85;70.81
67987;BME280;54767;53.800;15.956;2023-04-05T06:17:54;101013.01;;;-0.79;70.46
67987;BME280;54767;53.800;15.956;2023-04-05T06:20:23;101012.46;;;-0.71;70.76
67987;BME280;54767;53.800;15.956;2023-04-05T06:22:51;101011.86;;;-0.63;70.60
67987;BME280;54767;53.800;15.956;2023-04-05T06:25:20;101009.48;;;-0.57;70.45
67987;BME280;54767;53.800;15.956;2023-04-05T06:27:48;101011.90;;;-0.51;70.52
67987;BME280;54767;53.800;15.956;2023-04-05T06:30:16;101013.23;;;-0.46;70.53
67987;BME280;54767;53.800;15.956;2023-04-05T06:32:44;101012.39;;;-0.40;70.70
67987;BME280;54767;53.800;15.956;2023-04-05T06:35:15;101016.16;;;-0.34;70.42
67987;BME280;54767;53.800;15.956;2023-04-05T06:37:44;101015.23;;;-0.29;70.20
67987;BME280;54767;53.800;15.956;2023-04-05T06:40:12;101018.47;;;-0.27;69.56
67987;BME280;54767;53.800;15.956;2023-04-05T06:42:40;101016.60;;;-0.24;69.38
67987;BME280;54767;53.800;15.956;2023-04-05T06:45:10;101019.41;;;-0.19;69.28
67987;BME280;54767;53.800;15.956;2023-04-05T06:47:39;101019.55;;;-0.14;69.36
67987;BME280;54767;53.800;15.956;2023-04-05T06:50:08;101020.80;;;-0.07;69.38
67987;BME280;54767;53.800;15.956;2023-04-05T06:52:38;101021.90;;;0.00;68.93
67987;BME280;54767;53.800;15.956;2023-04-05T06:55:06;101018.92;;;0.08;68.78
67987;BME280;54767;53.800;15.956;2023-04-05T06:57:35;101020.41;;;0.16;68.52
67987;BME280;54767;53.800;15.956;2023-04-05T07:00:04;101021.98;;;0.23;68.42
67987;BME280;54767;53.800;15.956;2023-04-05T07:02:43;101018.20;;;0.29;68.43
67987;BME280;54767;53.800;15.956;2023-04-05T07:05:11;101013.27;;;0.33;67.96
67987;BME280;54767;53.800;15.956;2023-04-05T07:07:40;101013.23;;;0.39;67.71
67987;BME280;54767;53.800;15.956;2023-04-05T07:10:10;101014.15;;;0.43;67.59
67987;BME280;54767;53.800;15.956;2023-04-05T07:12:38;101015.41;;;0.47;66.88
67987;BME280;54767;53.800;15.956;2023-04-05T07:15:07;101017.04;;;0.49;66.54
67987;BME280;54767;53.800;15.956;2023-04-05T07:17:36;101015.69;;;0.52;66.46
67987;BME280;54767;53.800;15.956;2023-04-05T07:20:06;101014.48;;;0.55;66.36
67987;BME280;54767;53.800;15.956;2023-04-05T07:22:35;101018.98;;;0.59;66.59
67987;BME280;54767;53.800;15.956;2023-04-05T07:25:03;101016.61;;;0.63;66.62
67987;BME280;54767;53.800;15.956;2023-04-05T07:27:32;101016.17;;;0.67;66.44
67987;BME280;54767;53.800;15.956;2023-04-05T07:30:02;101014.11;;;0.71;66.32
67987;BME280;54767;53.800;15.956;2023-04-05T07:32:30;101011.55;;;0.75;66.16
67987;BME280;54767;53.800;15.956;2023-04-05T07:35:00;101011.23;;;0.75;65.44
67987;BME280;54767;53.800;15.956;2023-04-05T07:37:28;101006.02;;;0.75;65.47
67987;BME280;54767;53.800;15.956;2023-04-05T07:39:56;101001.86;;;0.77;65.21
67987;BME280;54767;53.800;15.956;2023-04-05T07:42:25;101002.96;;;0.81;64.80
67987;BME280;54767;53.800;15.956;2023-04-05T07:44:54;100999.39;;;0.85;64.62
67987;BME280;54767;53.800;15.956;2023-04-05T07:47:23;100997.75;;;0.90;64.77
67987;BME280;54767;53.800;15.956;2023-04-05T07:49:51;100999.68;;;0.95;64.33
67987;BME280;54767;53.800;15.956;2023-04-05T07:52:19;101001.55;;;0.97;63.68
67987;BME280;54767;53.800;15.956;2023-04-05T07:54:47;100999.21;;;0.98;62.71
67987;BME280;54767;53.800;15.956;2023-04-05T07:57:18;100992.95;;;1.01;63.42
67987;BME280;54767;53.800;15.956;2023-04-05T07:59:47;100994.33;;;1.07;63.36
67987;BME280;54767;53.800;15.956;2023-04-05T08:02:18;100994.06;;;1.12;63.16
67987;BME280;54767;53.800;15.956;2023-04-05T08:04:46;100993.55;;;1.16;62.76
67987;BME280;54767;53.800;15.956;2023-04-05T08:07:14;100998.00;;;1.18;61.37
67987;BME280;54767;53.800;15.956;2023-04-05T08:09:43;100997.47;;;1.18;61.98
67987;BME280;54767;53.800;15.956;2023-04-05T08:12:11;100995.45;;;1.22;62.45
67987;BME280;54767;53.800;15.956;2023-04-05T08:14:39;100999.15;;;1.27;61.98
67987;BME280;54767;53.800;15.956;2023-04-05T08:17:08;100999.64;;;1.33;62.53
67987;BME280;54767;53.800;15.956;2023-04-05T08:19:36;101001.85;;;1.43;61.86
67987;BME280;54767;53.800;15.956;2023-04-05T08:22:04;101003.17;;;1.52;61.87
67987;BME280;54767;53.800;15.956;2023-04-05T08:24:33;101005.55;;;1.58;61.46
67987;BME280;54767;53.800;15.956;2023-04-05T08:27:01;101005.20;;;1.65;61.95
67987;BME280;54767;53.800;15.956;2023-04-05T08:29:29;101002.41;;;1.71;61.82
67987;BME280;54767;53.800;15.956;2023-04-05T08:31:58;101003.73;;;1.76;61.75
67987;BME280;54767;53.800;15.956;2023-04-05T08:34:26;101000.71;;;1.79;61.65
67987;BME280;54767;53.800;15.956;2023-04-05T08:36:58;101000.38;;;1.83;61.36
67987;BME280;54767;53.800;15.956;2023-04-05T08:39:29;100998.95;;;1.85;60.61
67987;BME280;54767;53.800;15.956;2023-04-05T08:42:22;101002.13;;;1.90;61.06
67987;BME280;54767;53.800;15.956;2023-04-05T08:44:56;101002.30;;;1.94;60.93
67987;BME280;54767;53.800;15.956;2023-04-05T08:47:24;101004.39;;;1.97;60.25
67987;BME280;54767;53.800;15.956;2023-04-05T08:49:54;100998.17;;;2.01;59.80
67987;BME280;54767;53.800;15.956;2023-04-05T08:52:24;101000.47;;;2.05;60.05
67987;BME280;54767;53.800;15.956;2023-04-05T08:54:53;100990.81;;;2.13;60.47
67987;BME280;54767;53.800;15.956;2023-04-05T08:57:24;100990.25;;;2.19;60.76
67987;BME280;54767;53.800;15.956;2023-04-05T08:59:54;100990.23;;;2.22;60.21
67987;BME280;54767;53.800;15.956;2023-04-05T09:02:24;100987.27;;;2.25;60.13
67987;BME280;54767;53.800;15.956;2023-04-05T09:04:53;100986.48;;;2.27;59.67
67987;BME280;54767;53.800;15.956;2023-04-05T09:07:22;100986.11;;;2.26;59.33
67987;BME280;54767;53.800;15.956;2023-04-05T09:09:52;100980.40;;;2.26;59.11
67987;BME280;54767;53.800;15.956;2023-04-05T09:12:23;100979.11;;;2.24;59.20
67987;BME280;54767;53.800;15.956;2023-04-05T09:14:52;100977.98;;;2.26;58.82
67987;BME280;54767;53.800;15.956;2023-04-05T09:17:21;100979.02;;;2.26;58.15
67987;BME280;54767;53.800;15.956;2023-04-05T09:19:50;100980.27;;;2.23;58.47
67987;BME280;54767;53.800;15.956;2023-04-05T09:22:21;100980.41;;;2.27;58.54
67987;BME280;54767;53.800;15.956;2023-04-05T09:24:49;100980.55;;;2.29;58.39
67987;BME280;54767;53.800;15.956;2023-04-05T09:27:18;100978.45;;;2.32;58.01
67987;BME280;54767;53.800;15.956;2023-04-05T09:29:48;100975.92;;;2.34;58.36
67987;BME280;54767;53.800;15.956;2023-04-05T09:32:17;100980.05;;;2.34;57.64
67987;BME280;54767;53.800;15.956;2023-04-05T09:34:52;100976.38;;;2.32;57.78
67987;BME280;54767;53.800;15.956;2023-04-05T09:37:21;100975.39;;;2.37;58.31
67987;BME280;54767;53.800;15.956;2023-04-05T09:40:01;100972.65;;;2.45;58.56
67987;BME280;54767;53.800;15.956;2023-04-05T09:42:42;100969.86;;;2.52;58.05
67987;BME280;54767;53.800;15.956;2023-04-05T09:45:14;100971.15;;;2.58;57.59
67987;BME280;54767;53.800;15.956;2023-04-05T09:47:53;100971.46;;;2.65;57.91
67987;BME280;54767;53.800;15.956;2023-04-05T09:50:25;100971.73;;;2.74;58.50
67987;BME280;54767;53.800;15.956;2023-04-05T09:53:09;100971.64;;;2.80;57.03
67987;BME280;54767;53.800;15.956;2023-04-05T09:55:41;100971.36;;;2.81;57.08
67987;BME280;54767;53.800;15.956;2023-04-05T09:58:20;100970.28;;;2.84;57.38
67987;BME280;54767;53.800;15.956;2023-04-05T10:00:49;100968.73;;;2.89;57.19
67987;BME280;54767;53.800;15.956;2023-04-05T10:03:47;100969.55;;;2.91;57.28
67987;BME280;54767;53.800;15.956;2023-04-05T10:06:16;100969.98;;;2.98;58.01
67987;BME280;54767;53.800;15.956;2023-04-05T10:08:48;100969.55;;;3.03;56.90
67987;BME280;54767;53.800;15.956;2023-04-05T10:11:17;100968.11;;;3.02;56.25
67987;BME280;54767;53.800;15.956;2023-04-05T10:13:48;100963.20;;;3.04;57.15
67987;BME280;54767;53.800;15.956;2023-04-05T10:16:20;100960.42;;;3.11;57.79
67987;BME280;54767;53.800;15.956;2023-04-05T10:18:51;100964.33;;;3.22;58.26
67987;BME280;54767;53.800;15.956;2023-04-05T10:21:22;100960.80;;;3.28;57.44
67987;BME280;54767;53.800;15.956;2023-04-05T10:24:04;100959.66;;;3.34;57.60
67987;BME280;54767;53.800;15.956;2023-04-05T10:29:21;100957.32;;;3.53;57.90
67987;BME280;54767;53.800;15.956;2023-04-05T10:31:58;100952.69;;;3.66;58.41
67987;BME280;54767;53.800;15.956;2023-04-05T10:34:41;100954.98;;;3.79;58.26
67987;BME280;54767;53.800;15.956;2023-04-05T10:37:28;100954.16;;;3.90;57.36
67987;BME280;54767;53.800;15.956;2023-04-05T10:40:01;100950.75;;;3.95;57.50
67987;BME280;54767;53.800;15.956;2023-04-05T10:42:40;100946.30;;;4.01;57.39
67987;BME280;54767;53.800;15.956;2023-04-05T10:45:11;100946.86;;;4.10;57.76
67987;BME280;54767;53.800;15.956;2023-04-05T10:47:49;100939.02;;;4.22;58.16
67987;BME280;54767;53.800;15.956;2023-04-05T10:50:23;100937.23;;;4.35;57.99
67987;BME280;54767;53.800;15.956;2023-04-05T10:52:51;100938.73;;;4.47;58.13
67987;BME280;54767;53.800;15.956;2023-04-05T10:55:23;100936.12;;;4.60;58.06
67987;BME280;54767;53.800;15.956;2023-04-05T10:57:53;100934.49;;;4.72;57.90
67987;BME280;54767;53.800;15.956;2023-04-05T11:00:22;100934.55;;;4.83;58.05
67987;BME280;54767;53.800;15.956;2023-04-05T11:02:54;100933.65;;;4.87;54.55
67987;BME280;54767;53.800;15.956;2023-04-05T11:08:04;100931.91;;;4.73;52.79
67987;BME280;54767;53.800;15.956;2023-04-05T11:10:36;100933.35;;;4.70;54.11
67987;BME280;54767;53.800;15.956;2023-04-05T11:13:06;100935.20;;;4.78;54.97
67987;BME280;54767;53.800;15.956;2023-04-05T11:15:35;100937.52;;;4.79;54.13
67987;BME280;54767;53.800;15.956;2023-04-05T11:18:11;100933.36;;;4.74;52.91
67987;BME280;54767;53.800;15.956;2023-04-05T11:20:52;100935.14;;;4.66;52.91
67987;BME280;54767;53.800;15.956;2023-04-05T11:23:23;100932.33;;;4.56;52.39
67987;BME280;54767;53.800;15.956;2023-04-05T11:25:55;100929.96;;;4.48;52.58
67987;BME280;54767;53.800;15.956;2023-04-05T11:28:33;100928.52;;;4.47;53.41
67987;BME280;54767;53.800;15.956;2023-04-05T11:31:14;100928.73;;;4.52;53.85
67987;BME280;54767;53.800;15.956;2023-04-05T11:36:48;100927.56;;;4.72;54.91
67987;BME280;54767;53.800;15.956;2023-04-05T11:44:48;100918.18;;;5.15;53.74
67987;BME280;54767;53.800;15.956;2023-04-05T11:47:17;100918.05;;;5.22;54.57
67987;BME280;54767;53.800;15.956;2023-04-05T11:49:49;100913.88;;;5.37;55.19
67987;BME280;54767;53.800;15.956;2023-04-05T11:52:20;100915.95;;;5.52;55.38
67987;BME280;54767;53.800;15.956;2023-04-05T11:54:49;100910.48;;;5.60;54.01
67987;BME280;54767;53.800;15.956;2023-04-05T11:57:21;100908.59;;;5.60;53.63
67987;BME280;54767;53.800;15.956;2023-04-05T11:59:51;100904.31;;;5.68;54.22
67987;BME280;54767;53.800;15.956;2023-04-05T12:02:20;100905.48;;;5.83;54.15
67987;BME280;54767;53.800;15.956;2023-04-05T12:04:53;100903.16;;;5.96;53.98
67987;BME280;54767;53.800;15.956;2023-04-05T12:07:25;100899.36;;;6.02;53.32
67987;BME280;54767;53.800;15.956;2023-04-05T12:10:09;100896.76;;;6.03;52.27
67987;BME280;54767;53.800;15.956;2023-04-05T12:12:42;100897.91;;;6.01;51.76
67987;BME280;54767;53.800;15.956;2023-04-05T12:15:12;100896.96;;;6.04;52.87
67987;BME280;54767;53.800;15.956;2023-04-05T12:17:45;100899.70;;;6.14;52.23
67987;BME280;54767;53.800;15.956;2023-04-05T12:20:16;100898.45;;;6.18;52.67
67987;BME280;54767;53.800;15.956;2023-04-05T12:22:48;100897.94;;;6.24;52.07
67987;BME280;54767;53.800;15.956;2023-04-05T12:25:18;100899.88;;;6.25;51.30
67987;BME280;54767;53.800;15.956;2023-04-05T12:27:47;100894.41;;;6.23;50.97
67987;BME280;54767;53.800;15.956;2023-04-05T12:30:17;100890.67;;;6.20;51.05
67987;BME280;54767;53.800;15.956;2023-04-05T12:32:49;100887.77;;;6.21;51.31
67987;BME280;54767;53.800;15.956;2023-04-05T12:35:23;100884.04;;;6.19;49.49
67987;BME280;54767;53.800;15.956;2023-04-05T12:38:04;100877.36;;;6.05;47.15
67987;BME280;54767;53.800;15.956;2023-04-05T12:40:34;100875.89;;;5.92;47.98
67987;BME280;54767;53.800;15.956;2023-04-05T12:43:07;100873.57;;;5.94;48.99
67987;BME280;54767;53.800;15.956;2023-04-05T12:45:36;100872.36;;;6.00;49.24
67987;BME280;54767;53.800;15.956;2023-04-05T12:48:12;100873.98;;;6.14;50.38
67987;BME280;54767;53.800;15.956;2023-04-05T12:50:45;100869.10;;;6.31;50.60
67987;BME280;54767;53.800;15.956;2023-04-05T12:53:20;100874.45;;;6.47;50.53
67987;BME280;54767;53.800;15.956;2023-04-05T12:55:53;100867.19;;;6.61;50.16
67987;BME280;54767;53.800;15.956;2023-04-05T12:58:31;100866.22;;;6.76;50.34
67987;BME280;54767;53.800;15.956;2023-04-05T13:01:01;100862.30;;;6.92;50.17
67987;BME280;54767;53.800;15.956;2023-04-05T13:03:29;100864.94;;;7.07;49.56
67987;BME280;54767;53.800;15.956;2023-04-05T13:05:58;100863.16;;;7.11;48.59
67987;BME280;54767;53.800;15.956;2023-04-05T13:08:26;100863.08;;;7.15;48.79
67987;BME280;54767;53.800;15.956;2023-04-05T13:10:55;100860.24;;;7.27;49.03
67987;BME280;54767;53.800;15.956;2023-04-05T13:13:25;100854.77;;;7.38;48.90
67987;BME280;54767;53.800;15.956;2023-04-05T13:15:53;100849.78;;;7.47;49.11
67987;BME280;54767;53.800;15.956;2023-04-05T13:18:21;100836.68;;;7.60;49.25
67987;BME280;54767;53.800;15.956;2023-04-05T13:20:50;100835.30;;;7.61;44.48
67987;BME280;54767;53.800;15.956;2023-04-05T13:23:18;100854.94;;;7.17;42.83
67987;BME280;54767;53.800;15.956;2023-04-05T13:25:46;100861.59;;;6.91;44.33
67987;BME280;54767;53.800;15.956;2023-04-05T13:28:14;100859.80;;;6.77;45.31
67987;BME280;54767;53.800;15.956;2023-04-05T13:30:43;100859.54;;;6.73;45.91
67987;BME280;54767;53.800;15.956;2023-04-05T13:33:11;100856.41;;;6.73;46.58